Time;durP1;ratioP1;P1;durP2;ratioP2;P2;SDS_P1;SDS_P2;PMS_P1;PMS_P2;Temp;Humidity;BMP_temperature;BMP_pressure;BME280_temperature;BME280_humidity;BME280_pressure;Samples;Min_cycle;Max_cycle;Signal;HPM_P1;HPM_P2
2023/03/07 00:01:57;;;;;;;22.23;11.60;;;;;;;17.45;42.52;99267.91;5112807;28;20189;-61
2023/03/07 00:04:22;;;;;;;21.37;9.97;;;;;;;17.42;43.07;99265.88;5112705;28;20338;-60
2023/03/07 00:06:47;;;;;;;18.67;8.97;;;;;;;17.46;43.18;99265.88;5111642;28;20186;-61
2023/03/07 00:09:13;;;;;;;20.80;9.60;;;;;;;17.39;43.55;99257.25;5112735;28;20229;-61
2023/03/07 00:11:38;;;;;;;18.93;8.17;;;;;;;17.34;44.07;99260.47;5111343;28;20196;-60
2023/03/07 00:14:07;;;;;;;21.47;9.80;;;;;;;17.34;44.12;99267.00;5103260;28;20636;-61
2023/03/07 00:16:32;;;;;;;18.90;8.97;;;;;;;17.28;44.35;99262.88;5109264;28;20196;-61
2023/03/07 00:18:59;;;;;;;17.93;8.63;;;;;;;17.31;44.35;99264.94;5111900;28;20444;-60
2023/03/07 00:21:30;;;;;;;17.37;8.00;;;;;;;17.27;44.52;99264.09;5112298;27;20284;-60
2023/03/07 00:23:55;;;;;;;15.60;7.83;;;;;;;17.21;45.04;99265.69;5108893;28;20435;-61
2023/03/07 00:26:22;;;;;;;17.00;7.77;;;;;;;17.17;45.34;99252.63;5111137;28;20895;-61
2023/03/07 00:28:48;;;;;;;19.53;8.07;;;;;;;17.15;45.24;99264.41;5092547;28;20205;-61
2023/03/07 00:31:14;;;;;;;15.77;8.23;;;;;;;17.11;45.45;99263.56;5075168;28;20443;-60
2023/03/07 00:33:39;;;;;;;17.73;7.50;;;;;;;17.12;45.73;99255.84;5110601;28;20481;-61
2023/03/07 00:36:15;;;;;;;21.67;8.80;;;;;;;17.08;46.09;99257.84;5110588;28;20185;-61
2023/03/07 00:38:41;;;;;;;17.37;7.37;;;;;;;17.08;45.88;99252.97;5112566;27;20185;-60
2023/03/07 00:41:08;;;;;;;16.70;7.90;;;;;;;17.09;46.68;99250.91;5111333;28;20899;-61
2023/03/07 00:43:34;;;;;;;16.70;7.47;;;;;;;17.08;45.64;99249.28;5093924;28;20229;-61
2023/03/07 00:45:59;;;;;;;14.40;7.00;;;;;;;17.06;46.30;99251.72;5111990;28;20393;-60
2023/03/07 00:48:25;;;;;;;12.67;5.90;;;;;;;17.05;46.20;99252.94;5111404;28;20535;-60
2023/03/07 00:50:50;;;;;;;17.47;6.13;;;;;;;17.08;46.84;99247.28;5094011;28;20174;-60
2023/03/07 00:53:16;;;;;;;14.10;7.20;;;;;;;17.07;46.45;99248.50;5111769;28;20253;-60
2023/03/07 00:55:41;;;;;;;17.33;7.63;;;;;;;17.08;46.56;99252.97;5112791;28;20226;-60
2023/03/07 00:58:07;;;;;;;14.33;7.00;;;;;;;17.17;46.50;99244.06;5112390;28;20157;-60
2023/03/07 01:00:32;;;;;;;16.70;7.07;;;;;;;17.13;46.67;99246.06;5112435;28;20264;-60
2023/03/07 01:03:00;;;;;;;20.00;7.90;;;;;;;17.11;46.76;99239.94;5111292;28;20197;-61
2023/03/07 01:05:26;;;;;;;12.77;6.27;;;;;;;17.07;46.82;99242.78;5111833;28;20213;-61
2023/03/07 01:07:51;;;;;;;12.83;5.57;;;;;;;17.06;47.35;99241.13;5111216;28;20431;-60
2023/03/07 01:10:17;;;;;;;15.93;7.83;;;;;;;17.03;47.25;99241.09;5111855;28;20177;-60
2023/03/07 01:12:42;;;;;;;14.00;6.77;;;;;;;17.01;47.34;99238.66;5111580;28;20627;-61
2023/03/07 01:15:08;;;;;;;11.80;6.23;;;;;;;17.00;47.07;99236.22;5110653;28;20570;-60
2023/03/07 01:17:34;;;;;;;14.97;6.17;;;;;;;16.97;47.38;99226.41;5093109;28;20193;-61
2023/03/07 01:20:00;;;;;;;14.53;6.27;;;;;;;16.96;47.77;99230.47;5110802;28;20428;-61
2023/03/07 01:22:25;;;;;;;13.80;6.37;;;;;;;17.08;47.26;99226.47;5092556;28;20638;-61
2023/03/07 01:24:50;;;;;;;12.07;6.40;;;;;;;17.01;47.22;99229.28;5111152;28;20166;-61
2023/03/07 01:27:16;;;;;;;14.03;5.47;;;;;;;17.00;47.21;99221.97;5110144;28;20243;-61
2023/03/07 01:29:41;;;;;;;13.17;6.30;;;;;;;17.00;47.18;99231.31;5111565;28;20166;-61
2023/03/07 01:32:07;;;;;;;13.43;6.30;;;;;;;17.05;47.52;99224.44;5110696;28;20174;-61
2023/03/07 01:34:32;;;;;;;14.30;5.57;;;;;;;17.07;47.46;99219.97;5111352;28;20186;-61
2023/03/07 01:36:57;;;;;;;11.47;5.87;;;;;;;17.08;47.28;99223.63;5111166;28;20174;-62
2023/03/07 01:39:23;;;;;;;14.13;6.27;;;;;;;17.09;47.29;99214.69;5112784;27;20188;-61
2023/03/07 01:41:48;;;;;;;14.40;6.87;;;;;;;17.09;47.32;99211.00;5110417;28;20209;-61
2023/03/07 01:44:19;;;;;;;13.80;5.97;;;;;;;17.03;47.58;99207.72;5110421;28;20174;-61
2023/03/07 01:46:48;;;;;;;12.33;6.00;;;;;;;17.02;47.48;99197.53;5110382;28;20177;-60
2023/03/07 01:49:20;;;;;;;12.07;5.70;;;;;;;16.96;47.60;99190.56;5111157;28;20415;-61
2023/03/07 01:51:48;;;;;;;12.70;5.70;;;;;;;16.98;47.84;99188.13;5076314;28;20404;-61
2023/03/07 01:54:15;;;;;;;13.50;5.87;;;;;;;16.95;48.02;99188.13;5091818;28;20443;-61
2023/03/07 01:56:40;;;;;;;14.00;5.90;;;;;;;16.95;47.87;99182.41;5074536;28;20995;-61
2023/03/07 01:59:06;;;;;;;11.33;5.60;;;;;;;16.93;48.14;99179.97;5079514;28;20424;-61
2023/03/07 02:01:31;;;;;;;13.67;6.50;;;;;;;16.96;48.08;99173.44;5075493;28;20233;-61
2023/03/07 02:04:00;;;;;;;13.03;5.80;;;;;;;17.01;47.96;99175.91;5075627;28;20612;-61
2023/03/07 02:06:26;;;;;;;12.03;5.53;;;;;;;17.01;48.05;99164.50;5090252;28;20208;-61
2023/03/07 02:08:51;;;;;;;12.30;5.70;;;;;;;16.99;47.84;99163.28;5083598;28;20479;-61
2023/03/07 02:11:17;;;;;;;11.80;6.27;;;;;;;16.99;47.84;99166.13;5110429;28;20751;-60
2023/03/07 02:13:42;;;;;;;11.40;5.57;;;;;;;17.02;48.05;99162.50;5109760;28;20664;-61
2023/03/07 02:16:08;;;;;;;11.23;5.57;;;;;;;17.04;47.79;99162.91;5113037;27;20696;-61
2023/03/07 02:18:37;;;;;;;12.30;5.53;;;;;;;17.06;47.76;99158.44;5071550;28;20163;-61
2023/03/07 02:21:39;;;;;;;11.17;5.83;;;;;;;17.05;47.96;99153.97;5089745;28;20614;-61
2023/03/07 02:24:07;;;;;;;11.53;5.40;;;;;;;16.99;48.59;99152.72;5038803;28;20486;-61
2023/03/07 02:26:36;;;;;;;10.97;5.17;;;;;;;16.98;48.32;99151.06;5110310;28;20890;-61
2023/03/07 02:29:01;;;;;;;10.30;4.80;;;;;;;16.98;47.91;99144.53;5091297;28;20946;-61
2023/03/07 02:31:27;;;;;;;11.03;5.20;;;;;;;16.97;48.24;99152.28;5110386;28;20418;-61
2023/03/07 02:33:52;;;;;;;11.30;5.50;;;;;;;16.92;48.25;99155.53;5109945;28;20177;-61
2023/03/07 02:36:28;;;;;;;10.67;5.70;;;;;;;16.98;48.23;99148.22;5109706;28;20211;-61
2023/03/07 02:38:54;;;;;;;11.57;5.77;;;;;;;17.00;48.44;99147.84;5101899;28;20219;-61
2023/03/07 02:41:21;;;;;;;12.97;6.00;;;;;;;17.02;48.33;99148.25;5110126;28;20447;-61
2023/03/07 02:43:47;;;;;;;11.70;5.43;;;;;;;16.94;48.46;99144.53;5112338;28;20220;-61
2023/03/07 02:46:12;;;;;;;10.70;5.33;;;;;;;16.94;48.22;99141.69;5109998;28;20407;-61
2023/03/07 02:48:38;;;;;;;10.87;5.63;;;;;;;16.96;48.25;99139.22;5090952;28;20185;-61
2023/03/07 02:51:03;;;;;;;13.43;5.67;;;;;;;16.98;48.00;99133.13;5109949;28;20512;-61
2023/03/07 02:53:29;;;;;;;10.40;5.10;;;;;;;16.97;48.20;99135.19;5109522;28;20185;-61
2023/03/07 02:55:54;;;;;;;11.00;5.20;;;;;;;16.99;48.24;99132.75;5109609;28;20504;-61
2023/03/07 02:58:19;;;;;;;9.53;5.07;;;;;;;16.98;48.07;99136.81;5108513;28;20889;-61
2023/03/07 03:00:45;;;;;;;10.00;5.43;;;;;;;17.00;48.51;99142.94;5109822;28;20644;-61
2023/03/07 03:03:10;;;;;;;10.37;6.47;;;;;;;17.02;48.09;99131.97;5109020;28;20197;-61
2023/03/07 03:05:36;;;;;;;8.57;5.10;;;;;;;17.02;48.29;99131.97;5109509;28;20233;-61
2023/03/07 03:08:01;;;;;;;8.27;4.60;;;;;;;16.99;48.33;99129.06;5106118;28;20234;-61
2023/03/07 03:10:27;;;;;;;9.33;5.00;;;;;;;16.95;48.48;99117.66;5088637;28;20269;-61
2023/03/07 03:12:52;;;;;;;10.07;4.53;;;;;;;16.92;48.40;99121.31;5089608;28;20716;-61
2023/03/07 03:15:18;;;;;;;8.83;4.80;;;;;;;16.93;48.36;99128.66;5088746;28;20167;-61
2023/03/07 03:17:43;;;;;;;8.23;4.50;;;;;;;16.89;48.34;99124.94;5089140;28;20185;-61
2023/03/07 03:20:11;;;;;;;11.63;5.47;;;;;;;16.92;48.47;99132.72;5089038;28;20173;-61
2023/03/07 03:22:39;;;;;;;10.10;4.57;;;;;;;16.93;48.69;99120.09;5087900;28;20202;-61
2023/03/07 03:25:07;;;;;;;8.40;4.33;;;;;;;16.93;48.39;99122.94;5088150;28;20420;-61
2023/03/07 03:27:32;;;;;;;10.03;5.27;;;;;;;16.94;49.18;99120.88;5088570;28;20872;-61
2023/03/07 03:29:58;;;;;;;8.20;4.07;;;;;;;16.91;48.68;99118.84;5088403;28;20511;-61
2023/03/07 03:32:23;;;;;;;10.13;5.00;;;;;;;16.95;48.49;99120.50;5087631;28;20227;-61
2023/03/07 03:34:49;;;;;;;13.43;5.97;;;;;;;17.06;48.55;99123.41;5088262;28;20184;-61
2023/03/07 03:37:15;;;;;;;10.47;5.80;;;;;;;17.00;48.57;99108.72;5087485;28;20177;-61
2023/03/07 03:39:40;;;;;;;8.77;4.97;;;;;;;17.07;48.34;99119.34;5091044;28;20428;-61
2023/03/07 03:42:06;;;;;;;9.33;4.97;;;;;;;17.01;48.21;99115.25;5088650;28;20182;-61
2023/03/07 03:44:31;;;;;;;8.33;4.07;;;;;;;16.96;48.57;99110.72;5089132;28;20569;-61
2023/03/07 03:46:57;;;;;;;10.30;4.50;;;;;;;16.96;48.71;99101.38;5088915;28;20630;-61
2023/03/07 03:49:22;;;;;;;6.37;3.70;;;;;;;16.94;48.86;99101.75;5088666;28;20185;-61
2023/03/07 03:51:48;;;;;;;11.30;5.47;;;;;;;16.94;48.45;99101.75;5088214;28;20187;-61
2023/03/07 03:54:13;;;;;;;9.53;4.60;;;;;;;16.97;48.77;99103.84;5088508;28;20174;-61
2023/03/07 03:56:39;;;;;;;7.60;4.17;;;;;;;16.94;48.69;99095.22;5088970;28;20166;-60
2023/03/07 03:59:04;;;;;;;9.43;4.70;;;;;;;16.91;48.54;99091.16;5088980;28;20182;-61
2023/03/07 04:01:30;;;;;;;8.53;4.00;;;;;;;16.88;48.54;99091.97;5088272;28;20195;-61
2023/03/07 04:03:55;;;;;;;9.87;4.53;;;;;;;16.89;48.89;99092.75;5091251;28;20562;-61
2023/03/07 04:06:31;;;;;;;8.63;4.30;;;;;;;16.89;48.71;99082.19;5088669;28;20176;-61
2023/03/07 04:08:57;;;;;;;7.67;4.10;;;;;;;16.94;48.45;99093.22;5082529;28;20281;-61
2023/03/07 04:11:23;;;;;;;8.90;4.63;;;;;;;16.98;48.56;99082.66;5093370;28;20427;-61
2023/03/07 04:13:48;;;;;;;8.93;4.43;;;;;;;16.99;48.32;99084.28;5112154;28;20363;-61
2023/03/07 04:16:14;;;;;;;8.37;4.13;;;;;;;17.00;48.74;99076.56;5111885;28;20190;-61
2023/03/07 04:18:39;;;;;;;8.20;4.70;;;;;;;16.96;48.52;99076.50;5115359;27;20178;-61
2023/03/07 04:21:05;;;;;;;9.23;4.47;;;;;;;16.98;48.50;99076.13;5112881;28;20162;-61
2023/03/07 04:23:31;;;;;;;8.30;4.70;;;;;;;16.98;48.32;99068.41;5112290;28;20181;-61
2023/03/07 04:25:58;;;;;;;10.40;4.30;;;;;;;16.95;48.67;99062.69;5112027;28;20670;-61
2023/03/07 04:28:25;;;;;;;9.00;4.40;;;;;;;16.92;48.78;99067.16;5094286;28;20609;-62
2023/03/07 04:30:55;;;;;;;7.00;3.87;;;;;;;16.88;48.90;99063.47;5111768;28;20539;-61
2023/03/07 04:33:20;;;;;;;6.83;3.63;;;;;;;16.87;48.74;99058.97;5094800;28;20412;-61
2023/03/07 04:35:46;;;;;;;6.80;4.30;;;;;;;16.92;48.98;99058.59;5091841;28;20921;-61
2023/03/07 04:38:12;;;;;;;6.40;3.67;;;;;;;16.92;48.78;99058.59;5108359;28;20189;-61
2023/03/07 04:40:37;;;;;;;7.30;4.00;;;;;;;16.92;48.70;99058.59;5112267;28;20603;-61
2023/03/07 04:43:04;;;;;;;8.40;4.47;;;;;;;16.91;48.72;99056.16;5111033;28;20456;-61
2023/03/07 04:45:30;;;;;;;8.57;3.93;;;;;;;16.92;48.85;99052.91;5111258;28;20157;-61
2023/03/07 04:47:55;;;;;;;9.03;4.43;;;;;;;16.90;48.58;99057.38;5076249;28;20408;-61
2023/03/07 04:50:21;;;;;;;7.13;4.03;;;;;;;16.87;48.86;99055.31;5113620;27;20419;-61
2023/03/07 04:52:46;;;;;;;7.90;3.87;;;;;;;16.91;49.23;99054.09;5110677;28;20226;-61
2023/03/07 04:55:12;;;;;;;8.20;4.27;;;;;;;16.91;49.03;99048.38;5092868;28;20170;-61
2023/03/07 04:57:37;;;;;;;8.57;4.00;;;;;;;16.99;49.04;99044.38;5110043;28;20207;-61
2023/03/07 05:00:08;;;;;;;9.40;4.50;;;;;;;17.00;48.70;99037.44;5111607;28;20645;-61
2023/03/07 05:02:33;;;;;;;7.67;4.00;;;;;;;16.99;49.12;99035.81;5111655;28;20190;-61
2023/03/07 05:04:59;;;;;;;7.67;4.17;;;;;;;16.95;49.12;99037.81;5103116;28;20456;-61
2023/03/07 05:07:24;;;;;;;7.77;4.17;;;;;;;16.93;49.00;99031.72;5110624;28;20274;-61
2023/03/07 05:09:50;;;;;;;7.40;3.70;;;;;;;16.95;48.70;99039.88;5111328;28;20692;-61
2023/03/07 05:12:15;;;;;;;7.27;3.70;;;;;;;16.90;49.14;99034.56;5111172;28;20151;-61
2023/03/07 05:14:40;;;;;;;6.63;3.27;;;;;;;16.87;48.93;99038.19;5111511;28;20174;-60
2023/03/07 05:17:06;;;;;;;7.50;4.17;;;;;;;16.88;48.85;99034.13;5111462;28;20227;-61
2023/03/07 05:19:31;;;;;;;5.33;3.40;;;;;;;16.90;49.13;99041.06;5110113;28;20181;-61
2023/03/07 05:21:57;;;;;;;9.40;4.23;;;;;;;16.88;48.99;99034.97;5110926;28;20185;-61
2023/03/07 05:24:22;;;;;;;8.57;4.10;;;;;;;16.92;48.96;99034.97;5108350;28;20575;-61
2023/03/07 05:26:48;;;;;;;5.90;3.40;;;;;;;16.93;48.68;99034.56;5103899;28;20177;-61
2023/03/07 05:29:13;;;;;;;6.60;3.80;;;;;;;16.98;48.56;99031.34;5111472;28;20173;-61
2023/03/07 05:31:38;;;;;;;6.20;3.57;;;;;;;16.96;48.59;99030.09;5110846;28;20262;-61
2023/03/07 05:34:04;;;;;;;7.10;3.60;;;;;;;16.94;49.00;99029.66;5113035;27;20181;-61
2023/03/07 05:36:29;;;;;;;7.67;4.10;;;;;;;16.91;48.88;99019.88;5110040;28;20178;-61
2023/03/07 05:38:55;;;;;;;8.77;4.03;;;;;;;16.93;48.89;99017.47;5111117;28;20198;-61
2023/03/07 05:41:21;;;;;;;5.60;3.43;;;;;;;16.91;48.71;99019.09;5110823;28;20237;-62
2023/03/07 05:43:47;;;;;;;7.23;3.87;;;;;;;16.88;49.14;99015.00;5088162;28;20440;-61
2023/03/07 05:46:12;;;;;;;5.50;3.13;;;;;;;16.87;48.84;99007.69;5090384;28;20220;-61
2023/03/07 05:48:38;;;;;;;7.20;3.80;;;;;;;16.89;48.72;99013.78;5109389;28;20248;-61
2023/03/07 05:51:03;;;;;;;7.53;3.50;;;;;;;16.90;48.83;99011.75;5110462;28;20170;-62
2023/03/07 05:53:29;;;;;;;6.87;3.57;;;;;;;16.88;48.81;99012.16;5110461;28;20170;-61
2023/03/07 05:55:55;;;;;;;5.83;3.53;;;;;;;16.89;49.11;99012.94;5102529;28;20169;-61
2023/03/07 05:58:20;;;;;;;8.67;3.87;;;;;;;16.89;49.15;99007.25;5113135;27;20949;-61
2023/03/07 06:00:46;;;;;;;7.03;4.13;;;;;;;16.92;49.06;99015.84;5109955;28;20177;-61
2023/03/07 06:03:11;;;;;;;7.03;3.53;;;;;;;16.89;49.12;99002.38;5110096;28;20676;-61
2023/03/07 06:05:38;;;;;;;6.50;3.50;;;;;;;16.96;48.94;98999.53;5110470;28;20201;-61
2023/03/07 06:08:03;;;;;;;5.40;3.20;;;;;;;16.96;48.91;99010.94;5104934;28;20976;-61
2023/03/07 06:10:29;;;;;;;7.63;3.73;;;;;;;16.98;48.80;99004.84;5088206;28;20444;-62
2023/03/07 06:12:54;;;;;;;6.87;3.27;;;;;;;16.96;48.88;99004.44;5089739;28;20165;-61
2023/03/07 06:15:20;;;;;;;6.33;3.60;;;;;;;17.00;48.98;99006.09;5087036;28;20179;-61
2023/03/07 06:17:46;;;;;;;4.80;3.00;;;;;;;16.94;49.14;99002.00;5086497;28;20174;-61
2023/03/07 06:20:11;;;;;;;7.57;3.50;;;;;;;16.94;48.93;99007.69;5088603;28;20181;-61
2023/03/07 06:22:37;;;;;;;6.47;3.47;;;;;;;16.93;49.02;99002.38;5089543;28;20198;-61
2023/03/07 06:25:07;;;;;;;6.73;3.67;;;;;;;16.95;48.98;99005.66;5088777;28;20202;-61
2023/03/07 06:27:33;;;;;;;7.37;4.40;;;;;;;16.90;49.05;99006.84;5092646;28;20304;-61
2023/03/07 06:29:59;;;;;;;7.60;3.50;;;;;;;16.87;49.19;99009.69;5085744;28;20428;-61
2023/03/07 06:32:24;;;;;;;6.50;3.53;;;;;;;16.88;49.08;99009.31;5089614;28;20923;-61
2023/03/07 06:34:50;;;;;;;6.47;3.77;;;;;;;16.84;47.68;99011.31;5087520;28;20177;-61
2023/03/07 06:37:15;;;;;;;9.00;5.80;;;;;;;16.71;45.91;99012.88;5051124;28;20178;-61
2023/03/07 06:39:41;;;;;;;12.07;7.60;;;;;;;16.58;46.44;99005.06;5083039;28;20178;-61
2023/03/07 06:42:06;;;;;;;15.53;9.60;;;;;;;16.55;44.30;99000.19;5086781;28;20206;-60
2023/03/07 06:44:32;;;;;;;16.53;10.93;;;;;;;16.86;44.49;99003.16;5086908;28;20182;-61
2023/03/07 06:46:57;;;;;;;19.20;9.63;;;;;;;17.15;41.73;98999.19;5068544;28;20269;-61
2023/03/07 06:49:23;;;;;;;11.23;7.77;;;;;;;17.60;40.99;98998.50;5085906;28;20178;-61
2023/03/07 06:51:48;;;;;;;14.20;8.43;;;;;;;17.94;41.03;98991.19;5087571;28;20239;-61
2023/03/07 06:54:13;;;;;;;14.70;7.77;;;;;;;18.13;41.44;98996.47;5068852;28;20178;-61
2023/03/07 06:56:39;;;;;;;11.67;6.93;;;;;;;18.31;41.26;99000.09;5082900;28;20186;-61
2023/03/07 06:59:04;;;;;;;10.97;6.93;;;;;;;18.36;41.72;98999.72;5087091;28;20171;-60
2023/03/07 07:01:30;;;;;;;9.77;6.20;;;;;;;18.45;42.32;99002.97;5086855;28;20198;-61
2023/03/07 07:03:56;;;;;;;9.80;6.17;;;;;;;18.50;42.54;99005.41;5086504;28;20194;-61
2023/03/07 07:06:21;;;;;;;10.10;5.70;;;;;;;18.54;42.14;99006.22;5068242;28;20815;-61
2023/03/07 07:08:46;;;;;;;10.87;6.13;;;;;;;18.33;42.32;99008.28;5077084;28;20232;-61
2023/03/07 07:11:12;;;;;;;14.27;5.67;;;;;;;17.88;42.88;98998.53;5108317;28;20173;-61
2023/03/07 07:13:37;;;;;;;12.27;5.47;;;;;;;17.72;43.00;99006.69;5106132;28;20197;-60
2023/03/07 07:16:04;;;;;;;9.40;5.07;;;;;;;17.67;43.41;99007.09;5104990;28;20177;-61
2023/03/07 07:18:30;;;;;;;10.40;4.77;;;;;;;17.63;43.70;99003.41;5105115;28;20206;-61
2023/03/07 07:20:56;;;;;;;15.47;5.60;;;;;;;17.58;44.47;99008.69;5107176;28;20464;-61
2023/03/07 07:23:21;;;;;;;13.70;5.03;;;;;;;17.55;44.49;99004.63;5106495;28;20201;-61
2023/03/07 07:25:47;;;;;;;10.00;4.43;;;;;;;17.66;45.13;98994.03;5106310;28;20219;-61
2023/03/07 07:28:12;;;;;;;12.17;5.20;;;;;;;17.76;44.78;98995.25;5106451;28;20287;-61
2023/03/07 07:30:38;;;;;;;10.50;4.50;;;;;;;17.77;44.99;98997.72;5102177;28;20208;-61
2023/03/07 07:33:03;;;;;;;7.97;4.07;;;;;;;17.64;45.48;98998.50;5102244;28;20178;-61
2023/03/07 07:35:29;;;;;;;14.07;4.80;;;;;;;17.60;46.49;98998.50;5106876;28;20605;-61
2023/03/07 07:37:54;;;;;;;9.97;4.97;;;;;;;17.54;46.76;99000.13;5055043;28;20188;-60
2023/03/07 07:40:19;;;;;;;8.93;4.93;;;;;;;17.53;46.67;99003.38;5107393;28;20178;-61
2023/03/07 07:42:53;;;;;;;13.23;4.43;;;;;;;17.54;46.79;98999.31;5099767;28;20212;-61
2023/03/07 07:45:19;;;;;;;10.63;4.53;;;;;;;17.56;46.31;98997.69;5107565;28;20197;-61
2023/03/07 07:47:49;;;;;;;14.03;4.30;;;;;;;17.48;47.04;98998.91;5090772;28;20428;-61
2023/03/07 07:50:18;;;;;;;13.80;4.77;;;;;;;17.34;46.61;98998.84;5103304;28;20419;-61
2023/03/07 07:52:43;;;;;;;16.70;4.90;;;;;;;17.35;46.47;98997.63;5111558;28;20503;-61
2023/03/07 07:55:09;;;;;;;10.70;3.90;;;;;;;17.32;46.07;99004.16;5112139;28;20440;-62
2023/03/07 07:57:35;;;;;;;9.63;3.70;;;;;;;17.28;46.50;99000.47;5112537;28;20162;-61
2023/03/07 08:00:02;;;;;;;8.30;3.67;;;;;;;17.29;46.78;98999.25;5111742;28;20173;-61
2023/03/07 08:02:29;;;;;;;9.33;4.90;;;;;;;17.28;46.34;98997.63;5098415;28;20497;-61
2023/03/07 08:04:54;;;;;;;13.23;4.50;;;;;;;17.24;46.92;98993.94;5101579;27;20445;-61
2023/03/07 08:07:20;;;;;;;9.13;3.70;;;;;;;17.25;46.81;98998.41;5092660;28;20464;-61
2023/03/07 08:09:45;;;;;;;14.37;3.93;;;;;;;17.22;47.28;99010.66;5109779;28;20281;-61
2023/03/07 08:12:11;;;;;;;10.80;3.90;;;;;;;17.29;48.01;98993.53;5100045;28;20190;-61
2023/03/07 08:14:38;;;;;;;14.67;4.17;;;;;;;17.37;47.86;98995.19;5092183;28;20680;-61
2023/03/07 08:17:04;;;;;;;13.60;4.80;;;;;;;17.43;47.91;98996.47;5111713;28;20464;-61
2023/03/07 08:19:29;;;;;;;9.07;3.93;;;;;;;17.29;48.19;98992.72;5112238;28;20272;-61
2023/03/07 08:21:54;;;;;;;12.00;4.07;;;;;;;17.29;48.46;98990.69;5111348;28;20194;-61
2023/03/07 08:24:20;;;;;;;10.53;3.70;;;;;;;17.27;48.68;98990.28;5111300;28;20178;-61
2023/03/07 08:26:45;;;;;;;13.30;4.60;;;;;;;17.25;48.88;98995.56;5111374;28;20170;-61
2023/03/07 08:29:11;;;;;;;9.43;3.80;;;;;;;17.29;48.81;98987.84;5113941;27;20222;-61
2023/03/07 08:31:37;;;;;;;10.23;3.30;;;;;;;17.32;48.55;98995.59;5110350;28;20169;-61
2023/03/07 08:34:02;;;;;;;17.37;4.03;;;;;;;17.30;48.70;98995.16;5110881;28;20506;-61
2023/03/07 08:36:27;;;;;;;6.10;3.23;;;;;;;17.27;49.04;98998.00;5110091;28;20178;-61
2023/03/07 08:38:53;;;;;;;7.20;2.97;;;;;;;17.25;49.27;98987.00;5111453;28;20161;-61
2023/03/07 08:41:19;;;;;;;8.77;3.83;;;;;;;17.26;48.92;98994.34;5112310;28;20185;-61
2023/03/07 08:43:44;;;;;;;7.27;3.60;;;;;;;17.24;49.43;98988.22;5093272;28;20200;-61
2023/03/07 08:46:10;;;;;;;13.20;3.60;;;;;;;17.21;49.39;98983.31;5114594;27;20427;-61
2023/03/07 08:48:35;;;;;;;11.30;5.13;;;;;;;17.18;49.33;98981.28;5112017;28;20236;-61
2023/03/07 08:51:08;;;;;;;10.03;3.40;;;;;;;17.19;49.42;98985.78;5111755;28;20174;-61
2023/03/07 08:53:34;;;;;;;11.17;3.53;;;;;;;17.21;49.42;98986.19;5110959;28;20177;-61
2023/03/07 08:55:59;;;;;;;8.07;3.30;;;;;;;17.19;49.54;98982.91;5111862;28;20427;-61
2023/03/07 08:58:25;;;;;;;8.97;3.10;;;;;;;17.18;49.66;98986.16;5110952;28;20185;-61
2023/03/07 09:00:50;;;;;;;11.57;3.40;;;;;;;17.15;49.63;98996.34;5110502;28;20178;-61
2023/03/07 09:03:16;;;;;;;9.53;4.23;;;;;;;17.15;49.40;98993.50;5092930;28;20193;-61
2023/03/07 09:05:41;;;;;;;6.07;3.00;;;;;;;17.14;49.88;98980.47;5111614;28;20166;-61
2023/03/07 09:08:06;;;;;;;7.77;3.67;;;;;;;17.15;49.67;98981.28;5085000;28;20660;-61
2023/03/07 09:10:33;;;;;;;6.23;2.80;;;;;;;17.16;49.88;98980.88;5111292;28;20206;-61
2023/03/07 09:12:58;;;;;;;7.50;3.50;;;;;;;17.17;49.89;98984.53;5092558;28;20174;-61
2023/03/07 09:15:24;;;;;;;8.30;3.93;;;;;;;17.19;50.09;98982.09;5093539;28;20736;-61
2023/03/07 09:17:50;;;;;;;13.30;3.10;;;;;;;17.16;50.31;98977.22;5110820;28;20275;-61
2023/03/07 09:20:16;;;;;;;9.87;3.30;;;;;;;17.15;50.01;98982.09;5110664;28;20178;-61
2023/03/07 09:22:41;;;;;;;7.77;3.40;;;;;;;17.16;50.05;98985.78;5111217;28;20197;-61
2023/03/07 09:25:07;;;;;;;8.90;3.20;;;;;;;17.13;50.09;98980.88;5103063;28;20435;-61
2023/03/07 09:27:33;;;;;;;12.37;3.20;;;;;;;17.16;50.25;98980.88;5113578;27;20178;-61
2023/03/07 09:29:58;;;;;;;12.00;3.40;;;;;;;17.12;50.39;98980.06;5110940;28;20162;-62
2023/03/07 09:32:24;;;;;;;12.00;3.53;;;;;;;17.14;50.53;98985.34;5092710;28;20175;-61
2023/03/07 09:34:51;;;;;;;13.43;3.00;;;;;;;17.12;50.02;98982.91;5090925;28;20175;-61
2023/03/07 09:37:17;;;;;;;5.77;2.73;;;;;;;17.13;50.48;98970.28;5092225;28;20512;-61
2023/03/07 09:39:43;;;;;;;8.80;2.90;;;;;;;17.11;50.51;98964.16;5108333;28;20427;-61
2023/03/07 09:42:08;;;;;;;11.10;3.67;;;;;;;17.09;50.67;98972.31;5110702;28;20530;-62
2023/03/07 09:44:43;;;;;;;6.80;2.77;;;;;;;17.09;50.36;98963.75;5107796;28;20171;-61
2023/03/07 09:47:16;;;;;;;7.30;3.20;;;;;;;17.18;50.37;98963.34;5110477;28;20162;-61
2023/03/07 09:49:49;;;;;;;6.63;2.73;;;;;;;17.11;50.02;98958.44;5092638;28;20400;-61
2023/03/07 09:52:24;;;;;;;5.77;3.17;;;;;;;17.10;50.42;98956.03;5091155;28;20514;-61
2023/03/07 09:54:58;;;;;;;7.30;2.90;;;;;;;17.08;50.39;98947.88;5067837;28;20472;-61
2023/03/07 09:57:42;;;;;;;7.93;3.40;;;;;;;17.07;50.47;98946.25;5112196;27;20913;-62
2023/03/07 10:00:17;;;;;;;5.73;2.87;;;;;;;17.09;50.17;98946.66;5109869;28;20447;-62
2023/03/07 10:02:53;;;;;;;6.87;2.80;;;;;;;17.07;50.18;98942.56;5109801;28;20465;-62
2023/03/07 10:05:30;;;;;;;5.90;3.00;;;;;;;17.03;50.50;98942.56;5089019;28;20571;-62
2023/03/07 10:07:56;;;;;;;7.53;2.73;;;;;;;17.07;50.53;98934.84;5109904;28;20927;-61
2023/03/07 10:10:29;;;;;;;6.03;2.70;;;;;;;17.15;50.33;98932.81;5110053;28;20526;-61
2023/03/07 10:13:34;;;;;;;6.90;3.30;;;;;;;17.17;50.22;98934.03;5110699;28;20154;-61
2023/03/07 10:16:01;;;;;;;7.37;3.40;;;;;;;17.26;49.85;98920.19;5076405;28;20548;-62
2023/03/07 10:18:34;;;;;;;5.83;3.03;;;;;;;17.17;50.40;98928.34;5075581;28;20487;-62
2023/03/07 10:21:47;;;;;;;11.20;2.97;;;;;;;17.16;50.19;98935.25;5101107;27;20462;-61
2023/03/07 10:24:31;;;;;;;6.37;3.00;;;;;;;17.09;50.24;98932.38;5007403;28;20424;-62
2023/03/07 10:27:07;;;;;;;4.87;2.33;;;;;;;17.08;50.59;98918.53;5097203;28;20910;-62
2023/03/07 10:30:00;;;;;;;6.93;2.83;;;;;;;17.07;50.36;98923.44;5092255;28;20414;-61
2023/03/07 10:32:34;;;;;;;5.57;2.90;;;;;;;17.08;50.95;98910.81;5075364;28;20513;-61
2023/03/07 10:35:15;;;;;;;5.47;2.60;;;;;;;17.10;50.40;98911.19;5106190;28;20406;-61
2023/03/07 10:37:42;;;;;;;3.40;2.20;;;;;;;17.11;51.14;98917.72;5078270;28;20400;-61
2023/03/07 10:40:30;;;;;;;5.73;3.03;;;;;;;17.09;50.71;98911.59;5110025;28;20427;-61
2023/03/07 10:42:57;;;;;;;5.67;2.87;;;;;;;17.07;50.40;98914.88;5092052;28;20486;-61
2023/03/07 10:45:22;;;;;;;6.23;3.33;;;;;;;17.06;50.67;98903.88;5092115;28;20442;-61
2023/03/07 10:47:48;;;;;;;5.60;2.53;;;;;;;17.09;50.29;98908.75;5109960;28;20400;-61
2023/03/07 10:50:45;;;;;;;5.13;2.57;;;;;;;17.06;50.55;98904.66;5109184;28;20192;-61
2023/03/07 10:53:21;;;;;;;5.53;2.67;;;;;;;17.07;50.66;98909.19;5094198;28;20258;-61
2023/03/07 10:55:47;;;;;;;5.67;2.80;;;;;;;17.10;50.46;98910.41;5091278;28;20840;-62
2023/03/07 10:58:20;;;;;;;4.00;2.57;;;;;;;17.08;50.47;98907.94;5106171;28;20428;-61
2023/03/07 11:00:57;;;;;;;6.03;3.10;;;;;;;17.04;50.82;98918.53;5095481;28;20252;-61
2023/03/07 11:03:25;;;;;;;5.33;2.33;;;;;;;17.05;50.47;98903.03;5106590;28;20462;-61
2023/03/07 11:05:51;;;;;;;8.80;2.77;;;;;;;17.02;50.84;98906.72;5087748;28;20423;-62
2023/03/07 11:08:27;;;;;;;4.97;2.30;;;;;;;17.04;50.56;98906.28;5092017;28;20931;-62
2023/03/07 11:10:53;;;;;;;3.97;2.17;;;;;;;17.02;50.81;98897.34;5109880;28;20158;-61
2023/03/07 11:13:19;;;;;;;3.80;2.50;;;;;;;17.06;50.87;98901.81;5108707;28;20446;-61
2023/03/07 11:15:45;;;;;;;5.90;2.73;;;;;;;17.07;50.51;98905.50;5109357;28;20169;-61
2023/03/07 11:18:30;;;;;;;4.37;2.53;;;;;;;17.05;50.52;98903.03;5111551;28;20419;-61
2023/03/07 11:20:59;;;;;;;5.33;2.50;;;;;;;17.05;50.57;98902.25;5113999;28;20176;-62
2023/03/07 11:23:30;;;;;;;3.93;2.50;;;;;;;17.05;50.39;98885.94;5112950;28;20516;-61
2023/03/07 11:26:12;;;;;;;6.43;2.43;;;;;;;17.02;50.38;98892.47;5097756;28;20433;-61
2023/03/07 11:28:38;;;;;;;5.00;2.60;;;;;;;17.03;50.71;98884.72;5096912;28;20447;-61
2023/03/07 11:31:22;;;;;;;4.80;2.73;;;;;;;17.06;50.51;98886.78;5113606;28;20423;-62